createdAt,value
2022-10-06T00:08:19.560Z,100.00
2022-10-06T00:18:41.044Z,99.69
2022-10-06T00:29:02.494Z,99.75
2022-10-06T00:39:24.010Z,97.80
2022-10-06T00:49:45.870Z,96.93
2022-10-06T01:00:08.643Z,95.93
2022-10-06T01:10:30.115Z,96.47
2022-10-06T01:21:01.235Z,96.70
2022-10-06T01:31:23.233Z,96.74
2022-10-06T01:41:47.650Z,96.13
2022-10-06T01:52:09.395Z,97.16
2022-10-06T02:02:31.720Z,97.33
2022-10-06T02:12:53.649Z,97.85
2022-10-06T02:23:16.287Z,98.80
2022-10-06T02:33:38.268Z,98.35
2022-10-06T02:43:59.813Z,97.71
2022-10-06T02:54:21.761Z,96.96
2022-10-06T03:04:43.236Z,95.63
2022-10-06T03:15:05.184Z,95.64
2022-10-06T03:25:26.677Z,94.56
2022-10-06T03:35:48.116Z,93.22
2022-10-06T03:46:11.921Z,92.23
2022-10-06T03:56:36.415Z,91.42
2022-10-06T04:06:57.928Z,91.62
2022-10-06T04:17:19.376Z,90.86
2022-10-06T04:27:40.845Z,90.41
2022-10-06T04:38:02.342Z,90.83
2022-10-06T04:48:24.072Z,91.00
2022-10-06T04:58:46.910Z,91.18
2022-10-06T05:09:11.031Z,90.89
2022-10-06T05:19:32.518Z,90.97
2022-10-06T05:29:54.084Z,91.56
2022-10-06T05:40:15.631Z,91.66
2022-10-06T05:50:37.384Z,91.85
2022-10-06T06:01:11.256Z,91.98
2022-10-06T06:11:33.719Z,90.82
2022-10-06T06:21:55.157Z,90.40
2022-10-06T06:32:16.609Z,90.17
2022-10-06T06:42:38.306Z,89.48
2022-10-06T06:53:02.427Z,89.32
2022-10-06T07:03:45.213Z,89.78
2022-10-06T07:14:06.766Z,89.35
2022-10-06T07:24:46.969Z,88.97
2022-10-06T07:35:08.966Z,89.17
2022-10-06T07:45:41.112Z,88.26
2022-10-06T07:56:05.437Z,87.62
2022-10-06T08:06:26.932Z,87.40
2022-10-06T08:16:48.419Z,86.14
2022-10-06T08:27:09.859Z,85.49
2022-10-06T08:37:31.348Z,84.60
2022-10-06T08:48:11.074Z,83.69
2022-10-06T08:58:34.313Z,83.26
2022-10-06T09:09:03.966Z,82.29
2022-10-06T09:19:37.424Z,80.32
2022-10-06T09:30:01.099Z,77.96
2022-10-06T09:40:49.276Z,78.06
2022-10-06T09:51:18.356Z,75.41
2022-10-06T10:01:39.894Z,74.61
2022-10-06T10:12:28.105Z,74.00
2022-10-06T10:22:50.295Z,73.93
2022-10-06T10:33:33.948Z,70.86
2022-10-06T10:44:04.207Z,71.35
2022-10-06T10:54:37.398Z,70.79
2022-10-06T11:05:12.456Z,68.67
2022-10-06T11:15:57.612Z,67.39
2022-10-06T11:26:56.470Z,65.82
2022-10-06T11:37:20.857Z,64.76
2022-10-06T11:47:59.187Z,63.93
2022-10-06T11:58:41.550Z,63.63
2022-10-06T12:09:02.601Z,62.63
2022-10-06T12:19:37.192Z,63.17
2022-10-06T12:29:58.957Z,60.99
2022-10-06T12:40:48.182Z,62.43
2022-10-06T12:51:12.618Z,61.38
2022-10-06T13:01:34.316Z,61.89
2022-10-06T13:11:55.823Z,60.68
2022-10-06T13:22:17.186Z,61.16
2022-10-06T13:32:38.866Z,60.46
2022-10-06T13:43:01.959Z,60.20
2022-10-06T13:53:30.197Z,57.72
2022-10-06T14:04:12.421Z,59.13
2022-10-06T14:14:34.143Z,56.46
2022-10-06T14:24:56.006Z,57.93
2022-10-06T14:35:17.566Z,57.88
2022-10-06T14:45:44.096Z,57.03
2022-10-06T14:56:09.092Z,59.26
2022-10-06T15:06:49.257Z,59.45
2022-10-06T15:17:10.748Z,59.51
2022-10-06T15:27:51.143Z,60.22
2022-10-06T15:38:12.605Z,60.21
2022-10-06T15:48:34.344Z,58.70
2022-10-06T15:58:55.830Z,58.49
2022-10-06T16:09:21.163Z,60.42
2022-10-06T16:19:43.171Z,61.47
2022-10-06T16:30:05.253Z,63.27
2022-10-06T16:40:26.736Z,64.02
2022-10-06T16:50:48.110Z,65.48
2022-10-06T17:01:10.916Z,72.01
2022-10-06T17:11:32.515Z,73.43
2022-10-06T17:21:59.013Z,74.53
2022-10-06T17:32:20.683Z,74.34
2022-10-06T17:42:42.681Z,76.91
2022-10-06T17:53:04.353Z,79.59
2022-10-06T18:03:26.457Z,79.14
2022-10-06T18:13:49.515Z,79.86
2022-10-06T18:24:19.322Z,80.86
2022-10-06T18:45:41.388Z,81.96
2022-10-06T18:56:03.027Z,82.36
2022-10-06T19:06:26.487Z,83.50
2022-10-06T19:16:52.213Z,83.75
2022-10-06T19:27:16.973Z,84.47
2022-10-06T19:37:38.533Z,83.25
2022-10-06T19:48:00.000Z,83.40
2022-10-06T19:58:22.142Z,83.38
2022-10-06T20:08:44.125Z,83.67
2022-10-06T20:19:05.920Z,83.55
2022-10-06T20:29:28.190Z,85.40
2022-10-06T20:40:08.259Z,85.33
2022-10-06T20:50:33.027Z,85.70
2022-10-06T21:00:54.607Z,86.46
2022-10-06T21:11:19.369Z,86.43
2022-10-06T21:21:42.631Z,86.36
2022-10-06T21:32:04.113Z,88.77
2022-10-06T21:42:26.103Z,89.33
2022-10-06T21:52:47.585Z,91.11
2022-10-06T22:03:09.185Z,90.20
2022-10-06T22:13:30.735Z,90.53
2022-10-06T22:23:55.377Z,91.77
2022-10-06T22:34:19.842Z,92.23
2022-10-06T22:44:41.369Z,92.53
2022-10-06T22:55:02.944Z,92.78
2022-10-06T23:05:24.560Z,93.13
2022-10-06T23:15:46.559Z,93.44
2022-10-06T23:26:11.316Z,94.22
2022-10-06T23:36:32.946Z,94.07
2022-10-06T23:46:54.463Z,94.19
2022-10-06T23:57:15.973Z,95.58
